Time;durP1;ratioP1;P1;durP2;ratioP2;P2;SDS_P1;SDS_P2;PMS_P1;PMS_P2;Temp;Humidity;BMP_temperature;BMP_pressure;BME280_temperature;BME280_humidity;BME280_pressure;Samples;Min_cycle;Max_cycle;Signal;HPM_P1;HPM_P2
2021/09/08 00:02:22;;;;;;;4.70;1.80;;;;;;;29.40;64.35;100605.78;5077967;28;66096;-37
2021/09/08 00:04:54;;;;;;;5.80;2.45;;;;;;;29.47;64.01;100604.91;5078052;28;70414;-37
2021/09/08 00:07:25;;;;;;;11.73;2.03;;;;;;;29.55;64.17;100615.44;5076278;28;67099;-37
2021/09/08 00:09:57;;;;;;;9.88;2.28;;;;;;;29.51;64.82;100595.31;5074181;28;69808;-36
2021/09/08 00:12:29;;;;;;;7.95;2.55;;;;;;;29.58;65.47;100612.31;5078390;28;66264;-37
2021/09/08 00:15:01;;;;;;;11.23;2.30;;;;;;;29.65;65.54;100612.31;5060790;28;69492;-37
2021/09/08 00:17:35;;;;;;;3.33;1.90;;;;;;;29.70;65.76;100617.88;5053198;28;67007;-37
2021/09/08 00:20:09;;;;;;;2.35;2.15;;;;;;;29.77;66.63;100637.59;5077919;28;69241;-37
2021/09/08 00:22:48;;;;;;;6.38;2.50;;;;;;;29.79;66.80;100630.91;5079232;28;66699;-36
2021/09/08 00:25:21;;;;;;;5.30;2.17;;;;;;;29.81;66.34;100627.97;5075704;28;70354;-37
2021/09/08 00:27:56;;;;;;;2.67;2.10;;;;;;;29.84;66.19;100628.38;5055308;28;65344;-37
2021/09/08 00:30:34;;;;;;;8.60;2.33;;;;;;;29.89;66.90;100632.28;5077862;28;70247;-38
2021/09/08 00:33:07;;;;;;;13.98;9.00;;;;;;;29.93;67.86;100647.06;5079526;28;65986;-38
2021/09/08 00:35:53;;;;;;;15.60;8.52;;;;;;;29.98;67.98;100660.75;5063393;28;70519;-38
2021/09/08 00:38:28;;;;;;;12.77;6.85;;;;;;;29.93;67.70;100641.66;5059097;28;68322;-38
2021/09/08 00:41:10;;;;;;;7.70;6.20;;;;;;;30.06;67.85;100671.28;5044864;28;70384;-38
2021/09/08 00:43:49;;;;;;;16.42;7.93;;;;;;;30.11;68.38;100676.84;5074625;28;66358;-38
2021/09/08 00:46:33;;;;;;;16.95;8.60;;;;;;;30.11;68.29;100670.63;5040922;28;69378;-38
2021/09/08 00:49:13;;;;;;;13.02;8.40;;;;;;;29.90;68.90;100642.91;5031180;28;65666;-38
2021/09/08 00:51:57;;;;;;;18.67;9.18;;;;;;;30.06;68.59;100668.56;5073536;28;68492;-38
2021/09/08 00:54:36;;;;;;;13.80;7.85;;;;;;;30.18;69.47;100683.06;5071623;28;65711;-38
2021/09/08 00:57:12;;;;;;;10.88;6.55;;;;;;;30.25;69.17;100694.66;5065718;28;70103;-38
2021/09/08 00:59:59;;;;;;;13.30;7.97;;;;;;;30.27;69.39;100697.16;5063128;28;65716;-38
2021/09/08 01:02:41;;;;;;;9.77;5.93;;;;;;;30.26;69.09;100690.94;5029886;28;69845;-38
2021/09/08 01:05:19;;;;;;;5.43;4.57;;;;;;;30.28;69.05;100699.66;5029714;28;66069;-38
2021/09/08 01:08:02;;;;;;;11.02;5.45;;;;;;;30.28;69.50;100699.66;5041898;28;69141;-38
2021/09/08 01:10:41;;;;;;;5.72;4.95;;;;;;;30.28;68.97;100694.25;5040116;28;65156;-38
2021/09/08 01:13:19;;;;;;;8.18;4.65;;;;;;;30.07;68.85;100654.00;5057044;28;69074;-37
2021/09/08 01:16:07;;;;;;;9.00;5.00;;;;;;;30.30;68.29;100701.31;5026824;28;65684;-37
2021/09/08 01:18:49;;;;;;;4.55;4.15;;;;;;;30.35;68.72;100698.78;5067319;28;71593;-38
2021/09/08 01:21:39;;;;;;;4.10;3.70;;;;;;;30.33;68.88;100701.69;5036775;28;65249;-37
2021/09/08 01:24:15;;;;;;;8.45;4.32;;;;;;;30.33;68.67;100706.28;5044481;28;70233;-37
2021/09/08 01:27:23;;;;;;;3.75;3.40;;;;;;;30.35;68.29;100693.38;5071181;28;64810;-37
2021/09/08 01:30:50;;;;;;;5.43;4.00;;;;;;;30.15;69.38;100683.50;5058195;28;70293;-37
2021/09/08 01:33:39;;;;;;;3.17;2.92;;;;;;;30.33;68.24;100696.28;5044853;28;65414;-37
2021/09/08 01:36:18;;;;;;;4.15;3.30;;;;;;;30.41;68.53;100697.88;5057755;28;69472;-37
2021/09/08 01:38:56;;;;;;;3.78;3.22;;;;;;;30.41;67.94;100703.28;5069832;28;66288;-37
2021/09/08 01:41:35;;;;;;;;;;;;;;;30.12;69.52;100699.34;5042984;28;69365;-39
2021/09/08 01:44:20;;;;;;;3.47;3.15;;;;;;;30.44;68.73;100705.56;5060811;28;67250;-37
2021/09/08 01:47:06;;;;;;;3.88;3.30;;;;;;;30.50;68.43;100701.97;5063893;28;69967;-40
2021/09/08 01:49:39;;;;;;;3.40;3.10;;;;;;;30.54;68.03;100708.59;5054675;28;66211;-38
2021/09/08 01:52:21;;;;;;;3.08;2.60;;;;;;;30.55;68.14;100710.25;5062260;28;69754;-38
2021/09/08 01:55:21;;;;;;;9.88;3.20;;;;;;;30.48;68.48;100709.50;5022921;28;66936;-38
2021/09/08 01:58:20;;;;;;;4.05;3.65;;;;;;;30.55;68.46;100714.84;5069639;28;69258;-38
2021/09/08 02:01:26;;;;;;;6.15;2.72;;;;;;;30.61;68.34;100709.34;5062436;28;66220;-37
2021/09/08 02:04:27;;;;;;;3.45;2.90;;;;;;;30.38;68.28;100666.69;5062194;28;70839;-37
2021/09/08 02:07:11;;;;;;;2.85;2.50;;;;;;;30.55;68.14;100685.88;5040253;28;66433;-37
2021/09/08 02:10:00;;;;;;;8.23;3.05;;;;;;;30.72;67.89;100716.75;5022967;28;70099;-38
2021/09/08 02:12:48;;;;;;;5.53;2.95;;;;;;;30.73;68.43;100715.72;5038535;28;66775;-39
2021/09/08 02:15:50;;;;;;;4.10;3.10;;;;;;;30.77;68.53;100717.97;5057542;28;69813;-37
2021/09/08 02:18:36;;;;;;;2.63;2.40;;;;;;;30.75;68.24;100711.94;5057310;28;65432;-36
2021/09/08 02:21:23;;;;;;;4.82;2.30;;;;;;;30.58;68.40;100681.91;5074226;28;70230;-37
2021/09/08 02:24:16;;;;;;;2.60;2.40;;;;;;;30.80;68.15;100718.38;5059017;28;66393;-36
2021/09/08 02:27:34;;;;;;;4.72;2.70;;;;;;;30.78;67.58;100711.47;5061355;28;69539;-37
2021/09/08 02:30:31;;;;;;;5.18;3.10;;;;;;;30.71;66.97;100693.44;5073774;28;65832;-36
2021/09/08 02:33:15;;;;;;;2.88;2.67;;;;;;;30.78;66.52;100704.19;5040222;28;70232;-39
2021/09/08 02:35:55;;;;;;;6.47;3.08;;;;;;;30.84;66.31;100692.50;5016674;28;65470;-37
2021/09/08 02:38:34;;;;;;;3.85;2.97;;;;;;;30.56;66.40;100657.75;5040190;28;70578;-38
2021/09/08 02:41:32;;;;;;;5.43;3.05;;;;;;;30.81;66.26;100697.53;5060026;28;65542;-38
2021/09/08 02:44:29;;;;;;;6.68;3.05;;;;;;;30.69;66.48;100684.69;5052432;28;69733;-37
2021/09/08 02:47:48;;;;;;;7.83;2.60;;;;;;;30.84;66.24;100686.25;5071329;28;66596;-38
2021/09/08 02:50:24;;;;;;;3.25;2.80;;;;;;;30.85;66.42;100682.50;5041637;28;70026;-37
2021/09/08 02:53:12;;;;;;;2.60;2.20;;;;;;;30.97;65.58;100696.94;5041617;28;66402;-37
2021/09/08 02:55:50;;;;;;;4.03;2.00;;;;;;;31.02;65.66;100672.72;5056570;27;70282;-37
2021/09/08 02:58:51;;;;;;;2.58;2.10;;;;;;;31.05;65.69;100677.69;5038544;28;65851;-37
2021/09/08 03:01:37;;;;;;;2.20;2.00;;;;;;;31.11;64.74;100687.59;5011009;28;68466;-37
2021/09/08 03:04:17;;;;;;;6.68;2.00;;;;;;;31.14;64.94;100686.31;5055356;28;66539;-37
2021/09/08 03:07:00;;;;;;;5.30;2.25;;;;;;;31.12;65.16;100681.16;5010591;28;69701;-37
2021/09/08 03:09:53;;;;;;;19.52;2.38;;;;;;;31.09;64.78;100692.44;5039401;28;66258;-37
2021/09/08 03:12:38;;;;;;;19.77;2.78;;;;;;;31.15;65.05;100699.66;5055258;28;69315;-38
2021/09/08 03:15:34;;;;;;;13.57;2.03;;;;;;;31.12;65.66;100721.78;5060003;28;66146;-37
2021/09/08 03:18:56;;;;;;;21.42;2.88;;;;;;;31.10;66.06;100713.06;5035261;28;69871;-38
2021/09/08 03:22:08;;;;;;;5.03;1.80;;;;;;;30.93;67.54;100684.91;5073462;28;66153;-37
2021/09/08 03:24:54;;;;;;;2.28;1.73;;;;;;;31.08;67.04;100690.75;5050223;28;70338;-37
2021/09/08 03:27:44;;;;;;;8.60;2.55;;;;;;;30.94;67.55;100673.00;5053245;28;66430;-37
2021/09/08 03:30:42;;;;;;;22.10;2.08;;;;;;;31.05;68.13;100691.22;5039134;27;70064;-37
2021/09/08 03:33:20;;;;;;;4.05;1.80;;;;;;;31.02;68.63;100688.97;5076486;28;66091;-37
2021/09/08 03:36:00;;;;;;;14.52;2.00;;;;;;;31.01;69.46;100684.63;5065990;28;69259;-37
2021/09/08 03:38:47;;;;;;;12.57;2.50;;;;;;;31.06;69.09;100690.16;5060499;28;66522;-37
2021/09/08 03:41:25;;;;;;;3.35;1.80;;;;;;;31.06;69.03;100684.75;5057089;28;69009;-38
2021/09/08 03:43:58;;;;;;;4.28;2.10;;;;;;;31.09;69.22;100686.16;5077041;28;65498;-38
2021/09/08 03:46:32;;;;;;;2.30;1.88;;;;;;;31.09;69.41;100675.34;5075986;28;69399;-39
2021/09/08 03:49:05;;;;;;;2.83;2.50;;;;;;;31.14;68.71;100679.00;5068959;28;67823;-38
2021/09/08 03:51:38;;;;;;;7.30;2.92;;;;;;;31.12;69.35;100670.31;5072760;28;70506;-38
2021/09/08 03:54:13;;;;;;;2.55;2.08;;;;;;;31.14;69.11;100659.22;5074790;28;65455;-37
2021/09/08 03:56:48;;;;;;;2.15;1.95;;;;;;;31.13;69.43;100653.00;5074341;28;70176;-36
2021/09/08 03:59:23;;;;;;;2.92;2.00;;;;;;;31.16;68.85;100652.53;5052116;28;65535;-38
2021/09/08 04:02:01;;;;;;;2.78;2.25;;;;;;;31.19;68.56;100645.00;5068746;28;69418;-38
2021/09/08 04:04:42;;;;;;;2.40;2.20;;;;;;;31.21;68.83;100642.91;5076755;28;66302;-38
2021/09/08 04:07:26;;;;;;;2.00;1.88;;;;;;;31.24;68.24;100637.03;5059055;28;69403;-38
2021/09/08 04:10:08;;;;;;;3.88;2.30;;;;;;;31.23;68.50;100627.22;5071120;28;65754;-37
2021/09/08 04:12:42;;;;;;;2.38;2.13;;;;;;;31.28;68.38;100627.38;5076142;28;68695;-38
2021/09/08 04:15:17;;;;;;;2.72;2.17;;;;;;;31.29;68.19;100638.00;5062139;28;66249;-37
2021/09/08 04:17:52;;;;;;;1.92;1.83;;;;;;;31.30;68.41;100630.69;5078057;27;70676;-37
2021/09/08 04:20:25;;;;;;;3.20;2.17;;;;;;;31.30;68.90;100631.50;5078090;28;66531;-37
2021/09/08 04:22:58;;;;;;;2.05;1.85;;;;;;;31.38;68.08;100630.41;5054341;28;69462;-37
2021/09/08 04:25:32;;;;;;;2.38;1.73;;;;;;;31.38;68.48;100622.28;5077067;27;65486;-36
2021/09/08 04:28:05;;;;;;;2.05;1.85;;;;;;;31.42;67.57;100623.44;5056519;28;70164;-37
2021/09/08 04:30:39;;;;;;;4.05;2.03;;;;;;;31.38;68.09;100606.81;5055514;28;66108;-37
2021/09/08 04:33:12;;;;;;;2.92;2.05;;;;;;;31.44;68.23;100596.94;5053141;28;70205;-37
2021/09/08 04:35:45;;;;;;;4.38;2.35;;;;;;;31.52;67.90;100607.47;5076242;28;66522;-39
2021/09/08 04:38:18;;;;;;;1.85;1.75;;;;;;;31.46;67.48;100594.84;5077206;28;70360;-39
2021/09/08 04:40:52;;;;;;;2.80;1.75;;;;;;;31.52;67.42;100585.78;5070390;28;65109;-38
2021/09/08 04:43:27;;;;;;;2.08;1.50;;;;;;;31.57;66.79;100585.91;5074802;28;70256;-38
2021/09/08 04:46:00;;;;;;;4.18;2.08;;;;;;;31.64;66.57;100582.25;5040980;27;66340;-38
2021/09/08 04:48:33;;;;;;;2.97;1.65;;;;;;;31.68;66.81;100573.44;5054686;28;69954;-37
2021/09/08 04:51:07;;;;;;;2.95;1.42;;;;;;;31.69;66.62;100564.22;5059291;28;66408;-37
2021/09/08 04:53:40;;;;;;;7.00;1.33;;;;;;;31.63;65.05;100558.94;5052011;28;70182;-37
2021/09/08 04:56:13;;;;;;;2.05;1.02;;;;;;;31.52;63.82;100555.13;5077644;28;65445;-37
2021/09/08 04:58:46;;;;;;;6.22;1.58;;;;;;;31.47;62.80;100552.28;5073488;28;70097;-37
2021/09/08 05:01:18;;;;;;;4.28;1.52;;;;;;;31.40;62.05;100549.69;5075016;28;65334;-38
2021/09/08 05:03:51;;;;;;;2.95;1.40;;;;;;;31.33;61.43;100548.91;5075638;28;70183;-37
2021/09/08 05:06:22;;;;;;;;;;;;;;;31.02;60.60;100542.69;5071746;28;66833;-37
2021/09/08 05:08:55;;;;;;;2.45;1.15;;;;;;;31.10;59.94;100528.81;5075258;28;70295;-37
2021/09/08 05:11:28;;;;;;;3.53;1.70;;;;;;;30.98;58.68;100525.25;5069076;28;66640;-38
2021/09/08 05:14:00;;;;;;;1.30;1.10;;;;;;;31.04;57.62;100535.16;5077284;28;69206;-38
2021/09/08 05:16:33;;;;;;;1.38;1.08;;;;;;;30.99;57.72;100543.16;5039638;28;66407;-38
2021/09/08 05:19:07;;;;;;;4.45;1.10;;;;;;;31.00;58.14;100527.72;5069100;28;69581;-38
2021/09/08 05:21:39;;;;;;;4.32;1.02;;;;;;;30.93;57.04;100519.69;5073412;28;64967;-38
2021/09/08 05:24:16;;;;;;;3.38;1.25;;;;;;;30.90;56.68;100533.69;5075531;28;69907;-38
2021/09/08 05:26:49;;;;;;;2.67;1.15;;;;;;;30.88;55.99;100519.56;5072677;28;66228;-37
2021/09/08 05:29:22;;;;;;;4.68;1.08;;;;;;;30.90;55.28;100522.88;5053628;28;69847;-37
2021/09/08 05:31:56;;;;;;;1.98;1.20;;;;;;;30.88;54.61;100516.84;5070406;28;66346;-37
2021/09/08 05:34:29;;;;;;;1.52;1.00;;;;;;;30.84;54.49;100507.50;5074641;28;69908;-37
2021/09/08 05:37:03;;;;;;;1.40;0.88;;;;;;;30.78;53.60;100513.81;5052825;28;66054;-37
2021/09/08 05:39:36;;;;;;;1.75;1.08;;;;;;;30.80;52.90;100506.31;5071823;28;70297;-38
2021/09/08 05:42:11;;;;;;;1.92;1.05;;;;;;;30.77;53.21;100491.31;5068385;28;66158;-37
2021/09/08 05:44:44;;;;;;;1.92;1.10;;;;;;;30.75;52.54;100498.84;5057077;28;70056;-37
2021/09/08 05:47:18;;;;;;;1.80;1.08;;;;;;;30.73;51.95;100485.56;5072468;28;66009;-37
2021/09/08 05:49:53;;;;;;;2.10;1.05;;;;;;;30.69;51.03;100480.81;5075203;28;70342;-39
2021/09/08 05:52:27;;;;;;;2.50;1.35;;;;;;;30.72;51.61;100483.88;5070381;28;66770;-37
2021/09/08 05:55:00;;;;;;;1.85;1.70;;;;;;;30.72;51.37;100470.34;5053151;28;70174;-37
2021/09/08 05:57:34;;;;;;;1.85;1.35;;;;;;;30.70;51.19;100469.78;5068071;28;66365;-37
2021/09/08 06:00:08;;;;;;;1.58;1.48;;;;;;;30.71;50.30;100471.41;5056960;28;69259;-37
2021/09/08 06:02:42;;;;;;;3.17;1.55;;;;;;;30.75;50.28;100465.53;5055462;28;65188;-37
2021/09/08 06:05:16;;;;;;;4.13;1.60;;;;;;;30.71;49.93;100471.41;5074441;28;70488;-37
2021/09/08 06:07:51;;;;;;;2.17;1.90;;;;;;;30.71;50.46;100460.56;5050830;28;66909;-37
2021/09/08 06:10:26;;;;;;;1.83;1.73;;;;;;;30.72;49.73;100456.81;5063734;28;69390;-36
2021/09/08 06:13:08;;;;;;;2.55;2.15;;;;;;;30.75;48.93;100450.09;5074569;28;66462;-37
2021/09/08 06:15:43;;;;;;;1.95;1.80;;;;;;;30.68;49.78;100444.78;5076317;27;69316;-36
2021/09/08 06:18:16;;;;;;;3.13;2.22;;;;;;;30.73;48.67;100450.34;5052786;28;65774;-37
2021/09/08 06:20:55;;;;;;;2.15;1.95;;;;;;;30.71;49.39;100447.03;5054635;28;72212;-37
2021/09/08 06:23:32;;;;;;;3.33;2.40;;;;;;;30.73;48.58;100450.34;5054938;28;65602;-37
2021/09/08 06:26:12;;;;;;;2.88;2.38;;;;;;;30.76;48.52;100456.34;5074949;28;70026;-37
2021/09/08 06:28:53;;;;;;;4.28;2.47;;;;;;;30.55;48.46;100407.06;5070360;27;66486;-37
2021/09/08 06:31:27;;;;;;;3.08;2.47;;;;;;;30.76;48.44;100437.38;5074344;28;70148;-42
2021/09/08 06:34:08;;;;;;;2.47;2.30;;;;;;;30.77;48.15;100434.47;5057095;27;66714;-37
2021/09/08 06:36:44;;;;;;;3.05;2.85;;;;;;;30.77;48.14;100436.34;5074810;28;69701;-37
2021/09/08 06:39:26;;;;;;;3.00;2.75;;;;;;;30.75;47.96;100431.16;5041847;28;65411;-37
2021/09/08 06:42:07;;;;;;;2.88;2.50;;;;;;;30.70;47.16;100420.19;5057063;28;70001;-38
2021/09/08 06:44:40;;;;;;;4.30;2.85;;;;;;;30.77;47.68;100409.28;5031321;28;65417;-36
2021/09/08 06:47:20;;;;;;;2.95;2.75;;;;;;;30.69;47.19;100397.69;5054403;28;70143;-37
2021/09/08 06:50:03;;;;;;;8.38;3.10;;;;;;;30.77;47.37;100403.88;5056109;28;65946;-36
2021/09/08 06:52:39;;;;;;;3.45;3.15;;;;;;;30.73;47.29;100396.19;5054349;28;70302;-37
2021/09/08 06:55:15;;;;;;;5.15;3.17;;;;;;;30.75;46.88;100387.84;5068798;28;66441;-37
2021/09/08 06:58:13;;;;;;;7.15;3.78;;;;;;;30.78;47.63;100389.25;5066428;28;69870;-36
2021/09/08 07:00:49;;;;;;;5.68;4.13;;;;;;;30.72;48.38;100375.59;5050599;28;65920;-37
2021/09/08 07:03:26;;;;;;;4.63;3.55;;;;;;;30.81;47.82;100378.00;5074708;28;71128;-37
2021/09/08 07:06:06;;;;;;;4.90;3.53;;;;;;;30.73;48.06;100343.94;5069893;28;66346;-37
2021/09/08 07:08:46;;;;;;;6.82;3.55;;;;;;;30.85;47.86;100362.94;5021187;28;68778;-37
2021/09/08 07:11:34;;;;;;;4.00;3.70;;;;;;;30.83;47.18;100359.63;5031620;28;66948;-39
2021/09/08 07:14:23;;;;;;;3.83;3.45;;;;;;;30.84;47.22;100355.84;5050931;28;70141;-39
2021/09/08 07:17:01;;;;;;;6.00;3.65;;;;;;;30.90;46.88;100349.53;5038626;28;66663;-37
2021/09/08 07:19:42;;;;;;;4.20;3.90;;;;;;;30.90;46.08;100344.13;5071949;28;70593;-37
2021/09/08 07:22:25;;;;;;;6.88;4.50;;;;;;;30.95;45.99;100352.34;5036355;28;65709;-37
2021/09/08 07:25:11;;;;;;;4.47;4.18;;;;;;;30.90;46.27;100344.13;5040557;28;70541;-37
2021/09/08 07:28:04;;;;;;;4.93;4.53;;;;;;;31.00;45.62;100344.34;5072311;28;67002;-37
2021/09/08 07:30:53;;;;;;;4.75;4.32;;;;;;;30.97;46.33;100350.22;5053073;28;70395;-38
2021/09/08 07:33:44;;;;;;;4.78;4.38;;;;;;;30.97;45.97;100354.84;5055348;28;66268;-39
2021/09/08 07:36:45;;;;;;;5.55;4.80;;;;;;;30.96;46.58;100351.31;5049401;28;69118;-39
2021/09/08 07:39:56;;;;;;;5.70;5.30;;;;;;;30.70;45.79;100318.16;5059385;28;66098;-39
2021/09/08 07:42:37;;;;;;;5.45;5.07;;;;;;;30.96;45.27;100356.72;5052999;28;71712;-39
2021/09/08 07:45:29;;;;;;;5.15;4.85;;;;;;;30.93;45.76;100344.47;5053345;28;65834;-37
2021/09/08 07:48:43;;;;;;;5.53;4.90;;;;;;;30.77;44.88;100306.38;5056933;28;69353;-37
2021/09/08 07:51:24;;;;;;;5.95;5.55;;;;;;;30.95;45.29;100325.25;5038262;28;66248;-37
2021/09/08 07:54:09;;;;;;;5.13;4.80;;;;;;;30.99;45.25;100321.03;5045836;28;69435;-37
2021/09/08 07:56:52;;;;;;;6.88;6.25;;;;;;;30.97;49.13;100312.31;5050918;28;66035;-38
2021/09/08 07:59:50;;;;;;;6.18;5.70;;;;;;;31.07;48.96;100312.56;5076755;28;70390;-37
2021/09/08 08:02:32;;;;;;;;;;;;;;;30.98;48.53;100305.00;5037943;27;65498;-38
2021/09/08 08:05:16;;;;;;;15.00;6.15;;;;;;;31.15;48.27;100306.78;5071898;28;69944;-38
2021/09/08 08:08:05;;;;;;;14.05;6.30;;;;;;;31.16;47.95;100300.31;5038017;28;66225;-38
2021/09/08 08:11:34;;;;;;;7.03;6.53;;;;;;;31.13;52.38;100319.75;5055736;28;70064;-37
2021/09/08 08:14:33;;;;;;;7.65;7.05;;;;;;;31.39;54.70;100336.63;5052413;28;66237;-38
2021/09/08 08:17:19;;;;;;;10.10;6.50;;;;;;;31.52;55.76;100341.78;5057117;28;70139;-39
2021/09/08 08:20:20;;;;;;;7.18;6.57;;;;;;;31.67;57.42;100343.19;5052691;28;66829;-37
2021/09/08 08:23:13;;;;;;;8.20;6.57;;;;;;;31.75;58.02;100331.97;5050250;28;70239;-38
2021/09/08 08:25:50;;;;;;;6.40;5.90;;;;;;;31.87;57.59;100338.16;5053420;28;66198;-39
2021/09/08 08:28:32;;;;;;;6.85;6.28;;;;;;;31.92;58.99;100335.59;5039396;28;69523;-40
2021/09/08 08:31:19;;;;;;;7.82;5.47;;;;;;;31.53;59.60;100262.09;5057394;28;66033;-37
2021/09/08 08:34:08;;;;;;;8.65;4.97;;;;;;;32.04;59.63;100343.72;5044405;28;69801;-42
2021/09/08 08:36:44;;;;;;;4.65;4.25;;;;;;;32.09;59.95;100349.22;5070243;28;66176;-37
2021/09/08 08:39:30;;;;;;;4.75;3.63;;;;;;;32.08;59.93;100354.91;5037678;28;69854;-38
2021/09/08 08:42:13;;;;;;;6.65;3.67;;;;;;;32.11;59.89;100344.38;5060948;28;66160;-38
2021/09/08 08:44:49;;;;;;;3.92;3.63;;;;;;;32.01;60.13;100312.47;5051334;28;69981;-41
2021/09/08 08:47:31;;;;;;;4.63;3.38;;;;;;;32.16;59.32;100335.53;5051751;28;65544;-43
2021/09/08 08:50:10;;;;;;;3.65;3.35;;;;;;;32.19;59.37;100330.44;5050266;28;69581;-38
2021/09/08 08:52:49;;;;;;;5.97;3.15;;;;;;;32.19;59.40;100325.00;5073233;28;66249;-37
2021/09/08 08:55:22;;;;;;;3.83;3.53;;;;;;;32.22;59.74;100318.28;5073558;28;69534;-38
2021/09/08 08:58:07;;;;;;;3.40;3.13;;;;;;;32.24;59.69;100305.28;5059669;28;65469;-38
2021/09/08 09:00:44;;;;;;;3.25;2.95;;;;;;;32.07;59.59;100261.00;5053244;28;70318;-41
2021/09/08 09:03:26;;;;;;;5.38;3.40;;;;;;;32.26;60.10;100281.44;5075197;28;65667;-37
2021/09/08 09:06:06;;;;;;;5.30;4.33;;;;;;;32.29;59.36;100275.53;5055615;28;70547;-39
2021/09/08 09:09:00;;;;;;;4.47;4.07;;;;;;;32.02;60.43;100249.00;5070329;28;66779;-37
2021/09/08 09:11:36;;;;;;;5.32;3.45;;;;;;;32.27;60.43;100288.53;5066674;28;69908;-37
2021/09/08 09:14:16;;;;;;;6.20;3.40;;;;;;;32.16;60.06;100276.66;5072971;28;66209;-37
2021/09/08 09:16:57;;;;;;;7.18;3.55;;;;;;;32.34;60.09;100300.03;5051055;28;69949;-37
2021/09/08 09:19:49;;;;;;;4.53;3.22;;;;;;;32.13;59.59;100265.47;5054715;28;65679;-37
2021/09/08 09:22:40;;;;;;;3.70;3.40;;;;;;;32.38;60.22;100311.25;5073540;28;70006;-37
2021/09/08 09:25:19;;;;;;;8.55;3.35;;;;;;;32.19;60.07;100278.06;5051221;28;66072;-37
2021/09/08 09:28:00;;;;;;;6.20;3.88;;;;;;;32.21;59.45;100281.38;5073449;28;70460;-39
2021/09/08 09:30:41;;;;;;;6.35;3.28;;;;;;;32.45;60.09;100318.16;5048290;28;64243;-38
2021/09/08 09:33:31;;;;;;;4.25;2.95;;;;;;;32.47;60.27;100324.19;5055755;28;70377;-37
2021/09/08 09:36:18;;;;;;;4.25;3.47;;;;;;;32.24;61.02;100283.59;5068524;28;66729;-37
2021/09/08 09:38:53;;;;;;;5.07;3.25;;;;;;;32.46;60.80;100319.84;5074828;27;69855;-38
2021/09/08 09:41:37;;;;;;;;;;;;;;;32.24;61.26;100337.88;5074219;28;66621;-37
2021/09/08 09:44:14;;;;;;;4.43;3.45;;;;;;;32.30;60.90;100327.94;5053779;28;70370;-39
2021/09/08 09:46:49;;;;;;;3.92;3.22;;;;;;;32.39;60.89;100340.84;5048609;28;65997;-38
2021/09/08 09:49:25;;;;;;;3.47;3.17;;;;;;;32.34;61.16;100338.03;5072077;28;69219;-38
2021/09/08 09:52:07;;;;;;;4.07;3.67;;;;;;;32.36;61.41;100349.47;5049436;28;66703;-38
2021/09/08 09:54:45;;;;;;;3.67;3.38;;;;;;;32.20;61.44;100331.25;5067423;28;70051;-39
2021/09/08 09:57:23;;;;;;;3.78;3.42;;;;;;;32.36;61.47;100352.19;5071679;27;65808;-37
2021/09/08 10:00:04;;;;;;;3.70;3.40;;;;;;;32.28;61.48;100347.16;5045754;28;69811;-37
2021/09/08 10:02:47;;;;;;;4.07;3.67;;;;;;;32.35;61.89;100347.84;5072537;28;66284;-37
2021/09/08 10:05:25;;;;;;;5.68;4.00;;;;;;;32.35;61.78;100358.69;5052731;28;70213;-37
2021/09/08 10:07:58;;;;;;;3.40;2.92;;;;;;;32.27;62.44;100349.03;5070559;28;65535;-38
2021/09/08 10:10:35;;;;;;;3.72;3.42;;;;;;;32.16;62.27;100328.22;5057810;28;69946;-39
2021/09/08 10:13:28;;;;;;;4.15;3.85;;;;;;;32.11;62.82;100317.25;5074230;28;65688;-38
2021/09/08 10:16:03;;;;;;;3.78;3.30;;;;;;;32.36;63.21;100352.19;5072505;28;69824;-39
2021/09/08 10:18:43;;;;;;;4.10;3.45;;;;;;;32.37;62.61;100353.00;5054209;28;66440;-38
2021/09/08 10:21:21;;;;;;;4.60;3.78;;;;;;;32.33;62.58;100351.88;5076614;28;69823;-37
2021/09/08 10:23:59;;;;;;;5.80;4.40;;;;;;;32.22;61.74;100361.69;5073103;28;66070;-43
2021/09/08 10:26:35;;;;;;;3.63;3.13;;;;;;;32.12;62.52;100351.44;5076850;28;70225;-37
2021/09/08 10:29:08;;;;;;;4.22;3.70;;;;;;;32.13;61.78;100380.25;5071740;27;66395;-37
2021/09/08 10:31:51;;;;;;;3.67;3.25;;;;;;;31.93;61.81;100363.53;5075967;28;69802;-37
2021/09/08 10:34:25;;;;;;;3.97;3.55;;;;;;;32.09;63.15;100391.81;5076465;28;66176;-37
2021/09/08 10:37:02;;;;;;;3.40;3.10;;;;;;;32.12;62.13;100388.63;5076455;28;69142;-38
2021/09/08 10:39:37;;;;;;;3.30;2.50;;;;;;;31.81;60.67;100360.84;5058041;28;65543;-38
2021/09/08 10:42:11;;;;;;;3.13;2.92;;;;;;;32.01;61.86;100404.72;5077212;27;70278;-41
2021/09/08 10:45:16;;;;;;;3.85;3.55;;;;;;;32.04;62.51;100408.84;5059774;28;65266;-46
2021/09/08 10:47:52;;;;;;;3.30;3.00;;;;;;;32.04;62.15;100406.94;5076054;28;69453;-38
2021/09/08 10:50:36;;;;;;;4.07;3.00;;;;;;;31.99;61.75;100412.25;5070826;28;65468;-37
2021/09/08 10:53:27;;;;;;;3.93;3.67;;;;;;;32.01;61.65;100404.72;5078364;27;43698;-39
2021/09/08 10:56:01;;;;;;;4.68;4.35;;;;;;;32.01;61.41;100402.00;5067565;28;66303;-37
2021/09/08 10:58:55;;;;;;;5.47;4.78;;;;;;;31.91;61.40;100399.06;5076068;28;69950;-38
2021/09/08 11:01:29;;;;;;;8.18;4.13;;;;;;;31.68;60.94;100361.09;5075778;28;66044;-37
2021/09/08 11:04:12;;;;;;;5.35;4.85;;;;;;;31.90;61.16;100407.38;5059769;28;70140;-37
2021/09/08 11:06:50;;;;;;;3.78;3.47;;;;;;;31.90;60.84;100407.38;5053371;28;65855;-38
2021/09/08 11:09:24;;;;;;;3.00;2.70;;;;;;;31.86;61.04;100407.06;5072870;28;70284;-37
2021/09/08 11:11:59;;;;;;;7.38;3.22;;;;;;;31.59;60.71;100391.31;5066114;28;65237;-37
2021/09/08 11:14:52;;;;;;;8.32;4.25;;;;;;;31.45;60.25;100398.00;5074058;28;70618;-37
2021/09/08 11:17:27;;;;;;;5.57;5.07;;;;;;;31.71;60.70;100437.38;5069738;28;65500;-38
2021/09/08 11:20:04;;;;;;;10.82;7.68;;;;;;;31.64;60.29;100438.56;5053284;28;70123;-39
2021/09/08 11:22:38;;;;;;;9.05;6.32;;;;;;;31.63;60.78;100455.91;5055806;28;66162;-37
2021/09/08 11:25:13;;;;;;;5.80;5.10;;;;;;;31.36;61.05;100423.81;5073062;28;70113;-41
2021/09/08 11:27:52;;;;;;;8.07;4.45;;;;;;;31.56;61.15;100472.25;5071634;28;65537;-39
2021/09/08 11:30:33;;;;;;;23.35;4.55;;;;;;;31.65;61.21;100475.44;5055020;28;69670;-38
2021/09/08 11:33:11;;;;;;;4.72;3.50;;;;;;;31.47;61.10;100452.81;5074466;28;66557;-38
2021/09/08 11:35:55;;;;;;;4.28;3.88;;;;;;;31.71;61.23;100493.50;5073294;28;70592;-39
2021/09/08 11:38:33;;;;;;;4.47;4.07;;;;;;;31.66;61.53;100493.38;5071785;28;66777;-38
2021/09/08 11:41:06;;;;;;;3.95;3.65;;;;;;;31.64;61.31;100493.59;5071614;28;69461;-38
2021/09/08 11:43:48;;;;;;;6.32;3.47;;;;;;;31.61;60.81;100494.91;5070973;28;65639;-38
2021/09/08 11:46:32;;;;;;;7.70;3.70;;;;;;;31.40;61.02;100452.13;5055802;28;70346;-43
2021/09/08 11:49:10;;;;;;;4.95;3.38;;;;;;;31.55;61.41;100493.13;5069698;28;65799;-38
2021/09/08 11:51:45;;;;;;;5.35;3.35;;;;;;;31.58;61.62;100481.81;5052682;28;69416;-37
2021/09/08 11:54:25;;;;;;;3.30;3.00;;;;;;;31.36;61.31;100434.66;5056944;28;66247;-37
2021/09/08 11:57:01;;;;;;;4.55;4.18;;;;;;;31.35;60.83;100438.41;5074275;28;70424;-38
2021/09/08 11:59:37;;;;;;;5.35;4.80;;;;;;;31.57;61.34;100485.59;5076111;28;66433;-41
2021/09/08 12:02:14;;;;;;;9.88;4.80;;;;;;;31.56;61.21;100492.06;5074580;28;70189;-37
2021/09/08 12:04:48;;;;;;;5.05;4.70;;;;;;;31.52;61.07;100490.88;5059606;28;65303;-40
2021/09/08 12:07:30;;;;;;;5.07;3.95;;;;;;;31.34;61.78;100472.81;5074609;28;69589;-40
2021/09/08 12:10:08;;;;;;;5.65;3.40;;;;;;;31.53;61.53;100499.84;5077864;28;66525;-39
2021/09/08 12:12:43;;;;;;;10.93;4.13;;;;;;;31.47;61.95;100484.53;5056651;28;70327;-38
2021/09/08 12:15:36;;;;;;;10.40;3.72;;;;;;;31.51;61.60;100501.94;5068399;28;66372;-38
2021/09/08 12:18:19;;;;;;;4.72;4.40;;;;;;;31.28;61.88;100486.44;5053407;28;70234;-39
2021/09/08 12:21:19;;;;;;;8.02;4.25;;;;;;;31.44;62.14;100528.34;5074923;28;66215;-38
2021/09/08 12:24:14;;;;;;;5.03;4.63;;;;;;;31.45;61.74;100525.41;5053754;28;69524;-40
2021/09/08 12:27:33;;;;;;;5.00;4.50;;;;;;;31.41;62.07;100551.31;5073857;28;65413;-39
2021/09/08 12:30:26;;;;;;;4.63;4.22;;;;;;;31.43;61.75;100549.22;5076242;28;69381;-40
2021/09/08 12:33:17;;;;;;;5.10;4.72;;;;;;;31.45;62.81;100566.06;5039941;28;66101;-39